createdAt,value
2017-10-13T00:01:18.074Z,70.10
2017-10-13T00:03:46.440Z,70.00
2017-10-13T00:06:14.042Z,69.80
2017-10-13T00:08:41.651Z,69.60
2017-10-13T00:11:09.206Z,69.50
2017-10-13T00:13:36.805Z,69.60
2017-10-13T00:16:04.363Z,69.30
2017-10-13T00:18:31.983Z,69.30
2017-10-13T00:20:59.922Z,69.00
2017-10-13T00:23:27.923Z,69.00
2017-10-13T00:25:56.253Z,68.90
2017-10-13T00:28:23.811Z,68.80
2017-10-13T00:30:51.419Z,68.60
2017-10-13T00:33:19.728Z,69.00
2017-10-13T00:35:47.361Z,69.30
2017-10-13T00:38:14.909Z,69.60
2017-10-13T00:40:42.464Z,69.80
2017-10-13T00:43:10.883Z,69.70
2017-10-13T00:45:39.196Z,69.80
2017-10-13T00:48:06.820Z,69.80
2017-10-13T00:50:34.378Z,70.00
2017-10-13T00:53:01.992Z,69.80
2017-10-13T00:55:29.597Z,69.90
2017-10-13T00:57:57.930Z,69.70
2017-10-13T01:00:27.383Z,69.70
2017-10-13T01:02:54.932Z,69.60
2017-10-13T01:05:22.491Z,69.20
2017-10-13T01:07:50.874Z,69.40
2017-10-13T01:10:18.443Z,69.80
2017-10-13T01:12:46.046Z,69.80
2017-10-13T01:15:14.490Z,69.80
2017-10-13T01:17:42.148Z,70.20
2017-10-13T01:20:11.219Z,70.40
2017-10-13T01:22:39.539Z,70.60
2017-10-13T01:25:07.901Z,70.60
2017-10-13T01:27:35.487Z,70.70
2017-10-13T01:30:03.878Z,71.20
2017-10-13T01:32:32.424Z,71.30
2017-10-13T01:35:00.051Z,71.20
2017-10-13T01:37:27.639Z,71.10
2017-10-13T01:39:55.226Z,71.20
2017-10-13T01:42:22.786Z,71.20
2017-10-13T01:44:50.385Z,71.00
2017-10-13T01:47:17.944Z,71.20
2017-10-13T01:49:45.503Z,70.60
2017-10-13T01:52:13.090Z,70.50
2017-10-13T01:54:40.646Z,70.30
2017-10-13T01:57:08.285Z,70.30
2017-10-13T01:59:36.619Z,70.40
2017-10-13T02:02:04.176Z,70.50
2017-10-13T02:04:32.900Z,70.40
2017-10-13T02:07:00.515Z,70.30
2017-10-13T02:09:28.135Z,70.30
2017-10-13T02:11:55.690Z,70.30
2017-10-13T02:14:23.250Z,70.30
2017-10-13T02:16:50.860Z,70.40
2017-10-13T02:19:18.417Z,70.40
2017-10-13T02:21:46.013Z,70.50
2017-10-13T02:24:14.715Z,70.60
2017-10-13T02:26:43.443Z,70.60
2017-10-13T02:29:11.005Z,70.70
2017-10-13T02:31:39.334Z,71.10
2017-10-13T02:34:06.934Z,71.10
2017-10-13T02:36:34.498Z,71.10
2017-10-13T02:39:02.879Z,71.10
2017-10-13T02:41:30.886Z,71.20
2017-10-13T02:43:58.442Z,71.40
2017-10-13T02:46:26.027Z,71.60
2017-10-13T02:48:53.634Z,71.60
2017-10-13T02:51:21.243Z,71.20
2017-10-13T02:53:48.798Z,71.00
2017-10-13T02:56:16.359Z,71.00
2017-10-13T02:58:43.950Z,71.10
2017-10-13T03:01:11.517Z,71.50
2017-10-13T03:03:39.130Z,71.50
2017-10-13T03:06:07.094Z,71.00
2017-10-13T03:08:34.650Z,68.90
2017-10-13T03:11:04.306Z,70.40
2017-10-13T03:13:32.246Z,70.50
2017-10-13T03:15:59.871Z,70.70
2017-10-13T03:18:27.427Z,70.80
2017-10-13T03:20:55.423Z,70.90
2017-10-13T03:23:22.979Z,71.00
2017-10-13T03:25:50.622Z,70.70
2017-10-13T03:28:19.362Z,70.40
2017-10-13T03:30:48.048Z,70.50
2017-10-13T03:33:15.749Z,70.70
2017-10-13T03:35:43.370Z,70.80
2017-10-13T03:38:10.967Z,70.50
2017-10-13T03:40:38.527Z,70.40
2017-10-13T03:43:06.146Z,70.40
2017-10-13T03:45:33.706Z,70.20
2017-10-13T03:48:01.262Z,70.20
2017-10-13T03:50:28.843Z,70.30
2017-10-13T03:52:56.437Z,70.50
2017-10-13T03:55:24.039Z,70.40
2017-10-13T03:57:52.371Z,70.20
2017-10-13T04:00:19.927Z,69.60
2017-10-13T04:02:47.532Z,69.00
2017-10-13T04:05:15.494Z,69.30
2017-10-13T04:10:11.987Z,70.10
2017-10-13T04:12:39.583Z,70.00
2017-10-13T04:15:07.127Z,69.90
2017-10-13T04:27:30.868Z,69.70
2017-10-13T04:29:58.889Z,69.00
2017-10-13T04:32:27.954Z,68.50
2017-10-13T04:34:56.789Z,68.60
2017-10-13T04:37:24.344Z,69.50
2017-10-13T04:39:51.903Z,70.30
2017-10-13T04:42:19.490Z,70.30
2017-10-13T04:44:47.429Z,69.90
2017-10-13T04:47:14.987Z,69.80
2017-10-13T04:49:42.585Z,70.00
2017-10-13T04:52:10.167Z,69.40
2017-10-13T04:54:37.723Z,68.80
2017-10-13T04:57:05.338Z,69.10
2017-10-13T04:59:32.903Z,69.20
2017-10-13T05:02:00.465Z,69.10
2017-10-13T05:04:28.070Z,68.60
2017-10-13T05:06:56.414Z,68.50
2017-10-13T05:09:24.407Z,68.40
2017-10-13T05:16:50.805Z,68.90
2017-10-13T05:19:19.285Z,69.00
2017-10-13T05:21:48.338Z,69.00
2017-10-13T05:24:15.937Z,69.30
2017-10-13T05:26:43.495Z,69.60
2017-10-13T05:29:11.893Z,69.90
2017-10-13T05:31:39.461Z,70.20
2017-10-13T05:34:07.014Z,69.40
2017-10-13T05:36:36.000Z,69.40
2017-10-13T05:39:05.144Z,69.10
2017-10-13T05:41:33.518Z,68.40
2017-10-13T05:46:30.754Z,68.50
2017-10-13T05:48:58.380Z,68.30
2017-10-13T05:53:55.647Z,67.30
2017-10-13T05:56:23.207Z,67.30
2017-10-13T05:58:52.267Z,67.90
2017-10-13T06:01:20.268Z,68.00
2017-10-13T06:03:47.826Z,69.90
2017-10-13T06:06:15.826Z,71.40
2017-10-13T06:08:43.385Z,73.20
2017-10-13T06:11:11.338Z,74.70
2017-10-13T06:13:38.934Z,74.80
2017-10-13T06:16:06.498Z,74.20
2017-10-13T06:18:34.158Z,73.40
2017-10-13T06:21:01.714Z,73.40
2017-10-13T06:23:29.317Z,73.20
2017-10-13T06:25:57.321Z,73.20
2017-10-13T06:28:24.876Z,73.00
2017-10-13T06:30:52.526Z,73.00
2017-10-13T06:33:20.091Z,73.20
2017-10-13T06:35:47.650Z,72.70
2017-10-13T06:38:15.249Z,72.50
2017-10-13T06:40:43.215Z,71.70
2017-10-13T06:45:40.411Z,70.30
2017-10-13T06:48:07.969Z,71.00
2017-10-13T06:50:35.972Z,71.70
2017-10-13T06:53:03.518Z,72.00
2017-10-13T06:55:31.114Z,72.40
2017-10-13T06:57:58.671Z,72.70
2017-10-13T07:00:26.992Z,72.50
2017-10-13T07:02:54.606Z,72.50
2017-10-13T07:05:22.166Z,72.40
2017-10-13T07:07:50.628Z,72.80
2017-10-13T07:10:18.479Z,73.20
2017-10-13T07:12:46.035Z,73.70
2017-10-13T07:15:14.489Z,74.00
2017-10-13T07:17:43.646Z,74.50
2017-10-13T07:20:11.280Z,75.00
2017-10-13T07:22:39.240Z,75.40
2017-10-13T07:25:06.790Z,76.00
2017-10-13T07:27:34.490Z,75.90
2017-10-13T07:30:02.053Z,75.60
2017-10-13T07:32:30.430Z,75.70
2017-10-13T07:34:58.376Z,76.10
2017-10-13T07:37:26.778Z,76.70
2017-10-13T07:39:54.334Z,76.80
2017-10-13T07:42:23.077Z,77.70
2017-10-13T07:44:50.643Z,77.90
2017-10-13T07:47:18.274Z,77.10
2017-10-13T07:49:46.266Z,77.20
2017-10-13T07:52:14.620Z,76.80
2017-10-13T07:54:42.813Z,76.00
2017-10-13T07:57:10.382Z,75.40
2017-10-13T07:59:37.975Z,75.30
2017-10-13T08:02:05.530Z,75.20
2017-10-13T08:04:33.127Z,74.80
2017-10-13T08:07:00.685Z,73.90
2017-10-13T08:09:29.096Z,72.80
2017-10-13T08:11:56.654Z,72.50
2017-10-13T08:14:25.025Z,72.10
2017-10-13T08:16:52.586Z,72.20
2017-10-13T08:19:20.966Z,71.90
2017-10-13T08:24:18.956Z,72.00
2017-10-13T08:26:46.681Z,72.50
2017-10-13T08:29:14.263Z,71.40
2017-10-13T08:31:41.874Z,71.80
2017-10-13T08:34:09.457Z,71.20
2017-10-13T08:36:37.817Z,70.60
2017-10-13T08:39:06.174Z,68.80
2017-10-13T08:41:35.267Z,68.60
2017-10-13T08:44:02.837Z,69.40
2017-10-13T08:46:30.451Z,70.20
2017-10-13T08:48:59.144Z,69.70
2017-10-13T08:51:26.770Z,70.60
2017-10-13T08:53:54.328Z,69.60
2017-10-13T08:56:23.036Z,69.40
2017-10-13T08:58:51.047Z,68.70
2017-10-13T09:01:18.641Z,67.40
2017-10-13T09:03:46.237Z,66.70
2017-10-13T09:06:13.857Z,65.70
2017-10-13T09:08:41.446Z,65.50
2017-10-13T09:11:09.403Z,61.80
2017-10-13T09:13:37.928Z,60.10
2017-10-13T09:16:06.301Z,57.40
2017-10-13T09:18:34.639Z,54.20
2017-10-13T09:21:02.238Z,49.30
2017-10-13T09:23:29.806Z,47.40
2017-10-13T09:25:57.806Z,44.00
2017-10-13T09:28:25.364Z,44.40
2017-10-13T09:30:54.177Z,41.70
2017-10-13T09:33:21.731Z,40.20
2017-10-13T09:35:49.783Z,39.20
2017-10-13T09:38:17.341Z,38.20
2017-10-13T09:40:45.674Z,37.60
2017-10-13T09:43:13.272Z,36.00
2017-10-13T09:45:40.862Z,36.50
2017-10-13T09:48:08.459Z,35.70
2017-10-13T09:50:36.487Z,36.50
2017-10-13T09:53:04.120Z,35.60
2017-10-13T09:55:35.160Z,37.20
2017-10-13T09:58:02.781Z,36.40
2017-10-13T10:00:31.121Z,36.60
2017-10-13T10:03:05.618Z,37.00
2017-10-13T10:05:33.205Z,37.60
2017-10-13T10:08:00.772Z,37.40
2017-10-13T10:10:28.394Z,37.90
2017-10-13T10:12:56.361Z,38.30
2017-10-13T10:15:23.976Z,40.30
2017-10-13T10:17:51.580Z,41.10
2017-10-13T10:20:19.922Z,41.60
2017-10-13T10:22:48.702Z,42.80
2017-10-13T10:25:16.265Z,41.90
2017-10-13T10:27:43.861Z,43.60
2017-10-13T10:30:11.420Z,43.60
2017-10-13T10:32:39.826Z,43.60
2017-10-13T10:35:08.417Z,44.00
2017-10-13T10:37:36.002Z,44.70
2017-10-13T10:40:03.600Z,45.50
2017-10-13T10:42:31.546Z,46.70
2017-10-13T10:44:59.138Z,46.90
2017-10-13T10:47:26.700Z,46.00
2017-10-13T10:49:56.464Z,46.40
2017-10-13T10:52:24.799Z,46.50
2017-10-13T10:54:53.185Z,46.00
2017-10-13T10:57:21.216Z,46.30
2017-10-13T10:59:48.774Z,46.00
2017-10-13T11:02:16.374Z,46.60
2017-10-13T11:04:43.926Z,46.80
2017-10-13T11:07:11.510Z,47.00
2017-10-13T11:09:39.067Z,47.50
2017-10-13T11:12:06.668Z,47.80
2017-10-13T11:14:35.004Z,48.50
2017-10-13T11:17:02.611Z,47.90
2017-10-13T11:19:30.161Z,47.50
2017-10-13T11:21:57.787Z,47.90
2017-10-13T11:24:26.114Z,48.10
2017-10-13T11:26:53.677Z,48.10
2017-10-13T11:29:22.066Z,48.10
2017-10-13T11:31:49.615Z,47.10
2017-10-13T11:34:17.982Z,47.50
2017-10-13T11:36:45.542Z,46.80
2017-10-13T11:39:13.138Z,47.70
2017-10-13T11:41:40.710Z,47.90
2017-10-13T11:44:08.303Z,48.10
2017-10-13T11:46:36.782Z,48.40
2017-10-13T11:49:04.342Z,47.80
2017-10-13T11:51:31.942Z,47.40
2017-10-13T11:53:59.513Z,47.30
2017-10-13T11:56:27.117Z,47.10
2017-10-13T11:58:54.676Z,46.80
2017-10-13T12:01:22.503Z,47.40
2017-10-13T12:03:50.106Z,46.60
2017-10-13T12:06:17.690Z,46.50
2017-10-13T12:08:45.542Z,46.60
2017-10-13T12:11:13.102Z,46.90
2017-10-13T12:13:41.374Z,47.00
2017-10-13T12:16:08.934Z,47.50
2017-10-13T12:18:36.526Z,46.50
2017-10-13T12:21:04.133Z,47.00
2017-10-13T12:23:31.692Z,46.80
2017-10-13T12:25:59.313Z,44.30
2017-10-13T12:28:26.867Z,44.40
2017-10-13T12:30:54.468Z,45.20
2017-10-13T12:33:22.052Z,42.90
2017-10-13T12:35:49.605Z,43.40
2017-10-13T12:38:17.270Z,42.50
2017-10-13T12:40:44.847Z,42.60
2017-10-13T12:43:12.479Z,42.40
2017-10-13T12:45:40.038Z,41.00
2017-10-13T12:48:07.618Z,42.10
2017-10-13T12:50:35.177Z,42.50
2017-10-13T12:53:02.799Z,41.00
2017-10-13T12:55:30.383Z,40.80
2017-10-13T12:57:57.951Z,40.60
2017-10-13T13:00:25.575Z,41.10
2017-10-13T13:02:53.133Z,40.10
2017-10-13T13:05:20.827Z,39.20
2017-10-13T13:07:55.969Z,40.40
2017-10-13T13:10:32.358Z,39.70
2017-10-13T13:12:59.960Z,40.20
2017-10-13T13:50:08.210Z,39.10
2017-10-13T13:52:35.865Z,39.30
2017-10-13T13:55:18.519Z,39.40
2017-10-13T13:57:47.063Z,38.20
2017-10-13T14:00:14.609Z,38.60
2017-10-13T14:02:43.040Z,38.70
2017-10-13T14:05:10.591Z,38.20
2017-10-13T14:07:38.138Z,39.10
2017-10-13T14:12:55.984Z,38.50
2017-10-13T14:15:24.115Z,39.10
2017-10-13T14:17:53.319Z,38.20
2017-10-13T14:20:20.903Z,38.20
2017-10-13T14:22:48.488Z,36.40
2017-10-13T14:25:16.091Z,37.00
2017-10-13T14:27:43.643Z,37.10
2017-10-13T14:30:11.195Z,37.10
2017-10-13T14:32:38.771Z,37.70
2017-10-13T14:35:06.327Z,37.50
2017-10-13T14:37:33.944Z,37.00
2017-10-13T14:40:01.495Z,36.40
2017-10-13T14:42:29.052Z,36.80
2017-10-13T14:44:57.040Z,37.60
2017-10-13T14:47:25.363Z,38.60
2017-10-13T14:49:52.959Z,38.10
2017-10-13T14:52:20.507Z,36.80
2017-10-13T14:54:48.328Z,37.30
2017-10-13T14:57:15.945Z,37.70
2017-10-13T16:10:18.883Z,40.00
2017-10-13T16:12:47.771Z,40.40
2017-10-13T16:15:16.130Z,41.00
2017-10-13T16:17:43.707Z,41.00
2017-10-13T16:20:11.264Z,41.60
2017-10-13T16:22:39.642Z,41.80
2017-10-13T16:25:07.200Z,42.30
2017-10-13T16:27:35.394Z,44.10
2017-10-13T16:30:03.035Z,46.00
2017-10-13T16:32:31.447Z,47.00
2017-10-13T16:34:59.072Z,47.90
2017-10-13T16:37:27.455Z,48.40
2017-10-13T16:39:55.043Z,49.10
2017-10-13T16:42:23.252Z,49.70
2017-10-13T16:44:50.860Z,50.10
2017-10-13T16:47:19.235Z,50.50
2017-10-13T16:49:47.767Z,50.90
2017-10-13T16:52:16.153Z,51.20
2017-10-13T16:54:44.992Z,51.80
2017-10-13T16:57:13.342Z,52.30
2017-10-13T16:59:40.985Z,52.80
2017-10-13T17:02:09.325Z,53.10
2017-10-13T17:04:36.938Z,53.40
2017-10-13T17:07:04.497Z,53.50
2017-10-13T17:09:32.492Z,53.80
2017-10-13T17:12:00.794Z,54.30
2017-10-13T17:14:28.366Z,54.80
2017-10-13T17:16:55.980Z,55.30
2017-10-13T17:19:23.538Z,55.70
2017-10-13T17:21:51.138Z,56.00
2017-10-13T17:24:18.699Z,56.40
2017-10-13T17:26:47.489Z,56.50
2017-10-13T17:29:15.111Z,56.80
2017-10-13T17:31:43.067Z,56.80
2017-10-13T17:34:11.468Z,56.80
2017-10-13T17:36:39.046Z,57.00
2017-10-13T17:39:06.606Z,57.20
2017-10-13T17:41:34.617Z,57.30
2017-10-13T17:46:31.367Z,58.00
2017-10-13T17:48:59.336Z,58.20
2017-10-13T17:51:27.846Z,58.40
2017-10-13T17:53:55.438Z,58.70
2017-10-13T17:56:22.992Z,58.90
2017-10-13T17:58:50.614Z,59.10
2017-10-13T18:01:19.394Z,59.10
2017-10-13T18:03:47.726Z,59.10
2017-10-13T18:06:16.850Z,59.30
2017-10-13T18:08:45.183Z,59.30
2017-10-13T18:11:12.804Z,59.40
2017-10-13T18:13:41.642Z,59.40
2017-10-13T18:16:09.610Z,59.40
2017-10-13T18:18:37.984Z,59.40
2017-10-13T18:21:06.296Z,59.40
2017-10-13T18:23:34.674Z,59.50
2017-10-13T18:26:03.014Z,59.80
2017-10-13T18:28:31.386Z,60.20
2017-10-13T18:30:58.946Z,60.30
2017-10-13T18:33:26.631Z,60.60
2017-10-13T18:35:54.213Z,60.40
2017-10-13T18:40:51.476Z,60.60
2017-10-13T18:43:19.879Z,61.10
2017-10-13T18:45:47.439Z,61.20
2017-10-13T18:48:15.029Z,61.30
2017-10-13T18:50:43.550Z,61.60
2017-10-13T18:53:12.240Z,61.80
2017-10-13T18:55:39.830Z,61.90
2017-10-13T18:58:07.452Z,62.40
2017-10-13T19:00:35.043Z,62.30
2017-10-13T19:05:33.591Z,62.70
2017-10-13T19:08:02.316Z,63.60
2017-10-13T19:10:31.388Z,63.40
2017-10-13T19:15:28.309Z,63.40
2017-10-13T19:17:55.937Z,63.50
2017-10-13T19:20:23.976Z,63.20
2017-10-13T19:22:51.596Z,63.30
2017-10-13T19:30:17.139Z,63.20
2017-10-13T19:32:45.502Z,64.00
2017-10-13T19:35:13.091Z,64.00
2017-10-13T19:37:41.305Z,63.90
2017-10-13T19:40:09.767Z,63.80
2017-10-13T19:45:06.317Z,63.60
2017-10-13T19:47:34.713Z,63.80
2017-10-13T19:50:02.688Z,64.00
2017-10-13T19:52:30.327Z,63.70
2017-10-13T19:54:57.889Z,64.10
2017-10-13T19:57:26.708Z,64.60
2017-10-13T19:59:54.960Z,64.60
2017-10-13T20:02:22.604Z,64.50
2017-10-13T20:04:50.180Z,64.50
2017-10-13T20:07:17.740Z,64.50
2017-10-13T20:09:45.792Z,64.40
2017-10-13T20:12:13.476Z,62.80
2017-10-13T20:17:11.670Z,64.20
2017-10-13T20:19:39.671Z,64.80
2017-10-13T20:22:07.245Z,64.70
2017-10-13T20:27:04.904Z,64.90
2017-10-13T20:34:31.759Z,64.90
2017-10-13T20:36:59.378Z,64.90
2017-10-13T20:56:44.414Z,65.10
2017-10-13T21:21:14.523Z,65.90
2017-10-13T21:45:52.367Z,65.20
2017-10-13T21:50:51.360Z,65.30
2017-10-13T21:53:19.830Z,66.00
2017-10-13T21:55:47.448Z,66.20
2017-10-13T21:58:15.015Z,66.20
2017-10-13T22:00:42.572Z,66.30
2017-10-13T22:03:10.187Z,67.10
2017-10-13T22:05:37.751Z,66.90
2017-10-13T22:08:05.765Z,66.70
2017-10-13T22:10:33.328Z,65.90
2017-10-13T22:13:00.911Z,66.20
2017-10-13T22:15:29.291Z,66.80
2017-10-13T22:20:26.230Z,67.00
2017-10-13T22:22:53.805Z,67.30
2017-10-13T22:25:21.364Z,66.90
2017-10-13T22:27:48.956Z,66.70
2017-10-13T22:30:17.664Z,66.60
2017-10-13T22:32:45.291Z,67.10
2017-10-13T22:35:13.256Z,68.10
2017-10-13T22:37:41.204Z,68.70
2017-10-13T22:40:08.787Z,68.50
2017-10-13T22:42:36.364Z,68.90
2017-10-13T22:45:05.107Z,68.50
2017-10-13T22:47:32.665Z,66.90
2017-10-13T22:50:00.250Z,67.10
2017-10-13T22:52:27.820Z,67.20
2017-10-13T22:54:56.895Z,68.20
2017-10-13T22:57:24.498Z,68.20
2017-10-13T22:59:52.057Z,68.60
2017-10-13T23:02:20.082Z,68.40
2017-10-13T23:04:47.657Z,67.70
2017-10-13T23:07:15.950Z,67.30
2017-10-13T23:09:44.272Z,66.70
2017-10-13T23:12:11.895Z,67.70
2017-10-13T23:14:39.834Z,67.50
2017-10-13T23:17:07.388Z,67.70
2017-10-13T23:36:52.758Z,67.20
2017-10-13T23:56:40.286Z,67.70
2017-10-13T23:59:07.928Z,67.70
